Time;durP1;ratioP1;P1;durP2;ratioP2;P2;SDS_P1;SDS_P2;PMS_P1;PMS_P2;Temp;Humidity;BMP_temperature;BMP_pressure;BME280_temperature;BME280_humidity;BME280_pressure;Samples;Min_cycle;Max_cycle;Signal;HPM_P1;HPM_P2
2023/02/16 00:00:38;;;;;;;15.18;9.60;;;3.10;99.90;;;;;;478638;248;27551;-74
2023/02/16 00:02:39;;;;;;;17.27;10.98;;;3.10;99.90;;;;;;478658;248;27535;-73
2023/02/16 00:04:41;;;;;;;18.75;12.15;;;3.10;99.90;;;;;;478612;248;27458;-74
2023/02/16 00:06:42;;;;;;;21.40;12.00;;;3.10;99.90;;;;;;478670;246;28221;-75
2023/02/16 00:08:43;;;;;;;20.10;11.82;;;3.20;99.90;;;;;;478643;248;27867;-75
2023/02/16 00:15:05;;;;;;;18.25;11.73;;;3.40;99.90;;;;;;478619;248;27971;-75
2023/02/16 00:17:06;;;;;;;21.20;12.68;;;3.40;99.90;;;;;;478678;248;28042;-75
2023/02/16 00:19:07;;;;;;;21.23;12.48;;;3.50;99.90;;;;;;478636;248;27534;-74
2023/02/16 00:21:09;;;;;;;21.60;12.40;;;3.40;99.90;;;;;;478657;248;27442;-75
2023/02/16 00:23:10;;;;;;;16.83;11.70;;;3.40;99.90;;;;;;478637;248;27522;-74
2023/02/16 00:25:11;;;;;;;19.73;12.82;;;3.30;99.90;;;;;;478592;248;27498;-74
2023/02/16 00:27:12;;;;;;;20.85;13.07;;;3.20;99.90;;;;;;478675;248;27557;-74
2023/02/16 00:29:14;;;;;;;16.37;10.90;;;3.10;99.90;;;;;;478648;248;28016;-74
2023/02/16 00:31:16;;;;;;;19.58;13.07;;;3.30;99.90;;;;;;478650;248;28055;-76
2023/02/16 00:33:16;;;;;;;25.73;13.65;;;3.40;99.90;;;;;;478637;248;27502;-74
2023/02/16 00:35:18;;;;;;;22.92;13.25;;;3.50;99.90;;;;;;478636;248;27466;-76
2023/02/16 00:37:19;;;;;;;18.25;12.63;;;3.50;99.90;;;;;;478661;247;27538;-75
2023/02/16 00:39:20;;;;;;;20.60;13.52;;;3.50;99.90;;;;;;478675;248;27576;-75
2023/02/16 00:43:41;;;;;;;18.48;11.65;;;3.40;99.90;;;;;;478672;247;27459;-75
2023/02/16 00:45:42;;;;;;;23.23;12.55;;;3.40;99.90;;;;;;478701;248;27518;-74
2023/02/16 00:47:45;;;;;;;23.45;13.70;;;3.50;99.90;;;;;;478666;248;27473;-74
2023/02/16 00:49:46;;;;;;;16.42;11.55;;;3.50;99.90;;;;;;478662;248;27438;-74
2023/02/16 00:51:48;;;;;;;25.75;15.25;;;3.50;99.90;;;;;;478683;248;27458;-73
2023/02/16 00:53:49;;;;;;;24.35;13.73;;;3.60;99.90;;;;;;478676;248;27521;-76
2023/02/16 00:55:50;;;;;;;22.13;13.85;;;3.50;99.90;;;;;;478643;248;27565;-74
2023/02/16 00:57:51;;;;;;;20.15;13.25;;;3.50;99.90;;;;;;478696;248;27974;-75
2023/02/16 00:59:53;;;;;;;19.42;13.85;;;3.50;99.90;;;;;;478696;248;27852;-75
2023/02/16 01:01:56;;;;;;;23.65;13.62;;;3.40;99.90;;;;;;478679;248;27585;-74
2023/02/16 01:03:55;;;;;;;19.98;13.07;;;3.20;99.90;;;;;;478564;246;27430;-73
2023/02/16 01:12:56;;;;;;;19.70;13.00;;;3.30;99.90;;;;;;478497;248;28077;-75
2023/02/16 01:14:57;;;;;;;19.90;12.63;;;3.20;99.90;;;;;;478684;248;27958;-74
2023/02/16 01:16:58;;;;;;;24.52;13.05;;;3.20;99.90;;;;;;478690;248;27554;-75
2023/02/16 01:18:59;;;;;;;16.10;11.65;;;3.10;99.90;;;;;;478649;248;27412;-75
2023/02/16 01:21:01;;;;;;;19.25;12.95;;;3.10;99.90;;;;;;478629;248;27450;-74
2023/02/16 01:23:02;;;;;;;19.80;12.52;;;3.00;99.90;;;;;;478660;248;27459;-74
2023/02/16 01:25:03;;;;;;;17.15;12.25;;;3.00;99.90;;;;;;478713;248;27494;-75
2023/02/16 01:27:04;;;;;;;19.12;12.20;;;3.00;99.90;;;;;;478671;248;28002;-75
2023/02/16 01:29:06;;;;;;;20.67;13.20;;;2.90;99.90;;;;;;478669;248;27878;-74
2023/02/16 01:31:07;;;;;;;17.42;11.75;;;2.90;99.90;;;;;;478643;248;27570;-74
2023/02/16 01:33:08;;;;;;;22.50;13.52;;;2.90;99.90;;;;;;478628;248;27489;-74
2023/02/16 01:35:09;;;;;;;22.52;14.55;;;2.90;99.90;;;;;;478702;248;27414;-75
2023/02/16 01:37:11;;;;;;;19.55;13.00;;;2.90;99.90;;;;;;478678;248;27448;-75
2023/02/16 01:39:12;;;;;;;18.92;12.30;;;2.90;99.90;;;;;;478662;248;27569;-74
2023/02/16 01:41:21;;;;;;;22.50;14.10;;;2.90;99.90;;;;;;478617;248;27478;-74
2023/02/16 01:43:15;;;;;;;28.12;16.35;;;2.90;99.90;;;;;;478087;248;28130;-76
2023/02/16 01:45:16;;;;;;;29.87;15.60;;;2.90;99.90;;;;;;478656;248;27961;-75
2023/02/16 01:47:17;;;;;;;23.55;14.55;;;3.00;99.90;;;;;;478654;248;27483;-75
2023/02/16 01:49:21;;;;;;;25.50;14.52;;;3.00;99.90;;;;;;478656;248;27430;-74
2023/02/16 01:51:22;;;;;;;24.37;15.05;;;3.10;99.90;;;;;;478670;248;27452;-74
2023/02/16 01:53:24;;;;;;;23.73;15.15;;;3.10;99.90;;;;;;478641;248;27574;-74
2023/02/16 01:55:25;;;;;;;21.40;14.57;;;3.20;99.90;;;;;;478678;248;27474;-74
2023/02/16 01:57:26;;;;;;;23.62;13.98;;;3.10;99.90;;;;;;478657;248;27438;-74
2023/02/16 01:59:27;;;;;;;18.52;13.35;;;3.00;99.90;;;;;;478664;248;27562;-75
2023/02/16 02:01:29;;;;;;;20.40;13.35;;;3.00;99.90;;;;;;478654;248;27418;-74
2023/02/16 02:05:50;;;;;;;23.75;14.30;;;2.90;99.90;;;;;;478398;246;27544;-76
2023/02/16 02:07:51;;;;;;;21.85;14.30;;;3.00;99.90;;;;;;478642;248;27431;-75
2023/02/16 02:09:53;;;;;;;23.50;14.20;;;3.00;99.90;;;;;;478655;248;27466;-74
2023/02/16 02:11:53;;;;;;;25.98;14.77;;;3.00;99.90;;;;;;478665;248;27966;-75
2023/02/16 02:13:55;;;;;;;26.27;17.33;;;2.90;99.90;;;;;;478636;248;27875;-75
2023/02/16 02:15:56;;;;;;;23.42;15.95;;;3.00;99.90;;;;;;478653;248;27560;-76
2023/02/16 02:17:57;;;;;;;28.35;16.10;;;3.00;99.90;;;;;;478617;248;27510;-74
2023/02/16 02:19:58;;;;;;;23.05;15.13;;;3.10;99.90;;;;;;478654;248;27459;-74
2023/02/16 02:24:20;;;;;;;24.10;15.10;;;3.10;99.90;;;;;;478618;248;28682;-74
2023/02/16 02:26:21;;;;;;;19.85;14.02;;;3.00;99.90;;;;;;478675;248;27870;-75
2023/02/16 02:28:22;;;;;;;26.80;15.48;;;3.00;99.90;;;;;;478680;248;27446;-75
2023/02/16 02:30:23;;;;;;;23.02;14.93;;;3.10;99.90;;;;;;478659;248;27546;-75
2023/02/16 02:32:25;;;;;;;22.48;15.05;;;3.00;99.90;;;;;;478653;248;27438;-74
2023/02/16 02:34:26;;;;;;;22.98;14.38;;;2.90;99.90;;;;;;478617;248;27526;-74
2023/02/16 02:36:27;;;;;;;29.63;16.95;;;3.10;99.90;;;;;;478671;246;27442;-75
2023/02/16 02:38:28;;;;;;;23.50;14.73;;;3.10;99.90;;;;;;478694;248;28047;-75
2023/02/16 02:40:30;;;;;;;24.70;15.95;;;3.00;99.90;;;;;;478635;248;27940;-74
2023/02/16 02:42:31;;;;;;;24.37;14.63;;;3.00;99.90;;;;;;478623;248;27945;-74
2023/02/16 02:44:32;;;;;;;27.05;16.37;;;2.90;99.90;;;;;;478609;248;27398;-74
2023/02/16 02:46:34;;;;;;;21.15;14.45;;;2.80;99.90;;;;;;478663;248;27529;-74
2023/02/16 02:48:35;;;;;;;24.05;16.65;;;2.80;99.90;;;;;;478673;248;27470;-74
2023/02/16 02:50:36;;;;;;;25.00;16.40;;;2.70;99.90;;;;;;478662;248;27414;-74
2023/02/16 02:52:37;;;;;;;26.27;17.48;;;2.70;99.90;;;;;;478686;248;27497;-74
2023/02/16 03:01:37;;;;;;;25.27;15.82;;;2.60;99.90;;;;;;478692;247;27815;-75
2023/02/16 03:03:38;;;;;;;25.05;16.33;;;2.60;99.90;;;;;;478681;248;27419;-74
2023/02/16 03:05:39;;;;;;;30.73;16.92;;;2.60;99.90;;;;;;478666;248;27502;-74
2023/02/16 03:07:46;;;;;;;28.30;18.08;;;2.50;99.90;;;;;;478654;248;27846;-74
2023/02/16 03:12:43;;;;;;;30.62;18.02;;;2.50;99.90;;;;;;478595;248;27464;-75
2023/02/16 03:14:08;;;;;;;29.92;17.80;;;2.40;99.90;;;;;;478639;248;27422;-74
2023/02/16 03:16:10;;;;;;;28.27;17.73;;;2.40;99.90;;;;;;478645;248;27486;-75
2023/02/16 03:29:49;;;;;;;27.27;17.33;;;2.30;99.90;;;;;;478669;248;28973;-75
2023/02/16 03:31:50;;;;;;;31.17;19.95;;;2.30;99.90;;;;;;478641;248;27470;-76
2023/02/16 03:33:53;;;;;;;32.15;18.85;;;2.30;99.90;;;;;;478652;248;27517;-75
2023/02/16 03:35:53;;;;;;;26.73;16.73;;;2.30;99.90;;;;;;478581;248;27467;-74
2023/02/16 03:37:54;;;;;;;27.70;17.85;;;2.30;99.90;;;;;;478678;248;27553;-75
2023/02/16 03:42:15;;;;;;;27.40;17.08;;;2.30;99.90;;;;;;478623;246;27564;-74
2023/02/16 03:44:16;;;;;;;23.67;15.70;;;2.30;99.90;;;;;;478719;248;27874;-75
2023/02/16 03:46:17;;;;;;;22.35;14.73;;;2.30;99.90;;;;;;478666;248;27423;-74
2023/02/16 03:48:18;;;;;;;25.35;16.27;;;2.20;99.90;;;;;;478682;248;27446;-74
2023/02/16 03:50:20;;;;;;;24.15;16.12;;;2.20;99.90;;;;;;478648;248;27886;-74
2023/02/16 03:52:21;;;;;;;27.42;16.60;;;2.20;99.90;;;;;;478674;248;27924;-73
2023/02/16 03:54:22;;;;;;;24.33;16.85;;;2.20;99.90;;;;;;478691;248;27446;-74
2023/02/16 03:56:23;;;;;;;27.60;15.90;;;2.10;99.90;;;;;;478689;248;27463;-75
2023/02/16 03:58:25;;;;;;;35.63;18.05;;;2.10;99.90;;;;;;478640;248;27549;-75
2023/02/16 04:00:26;;;;;;;29.45;18.23;;;2.20;99.90;;;;;;478654;248;27415;-73
2023/02/16 04:02:27;;;;;;;28.75;17.40;;;2.20;99.90;;;;;;478655;248;27450;-74
2023/02/16 04:04:28;;;;;;;26.35;16.55;;;2.10;99.90;;;;;;478681;248;27906;-74
2023/02/16 04:06:30;;;;;;;24.15;15.85;;;2.10;99.90;;;;;;478690;248;28053;-74
2023/02/16 04:08:31;;;;;;;26.48;16.90;;;2.10;99.90;;;;;;478606;248;27450;-73
2023/02/16 04:10:32;;;;;;;26.60;16.15;;;2.20;99.90;;;;;;478645;248;27441;-74
2023/02/16 04:12:36;;;;;;;30.65;16.60;;;2.20;99.90;;;;;;478648;248;27489;-74
2023/02/16 04:14:38;;;;;;;28.95;18.23;;;2.20;99.90;;;;;;478672;248;27422;-73
2023/02/16 04:16:39;;;;;;;32.17;18.55;;;2.30;99.90;;;;;;478664;248;27469;-73
2023/02/16 04:18:40;;;;;;;29.87;17.75;;;2.30;99.90;;;;;;478666;248;27497;-74
2023/02/16 04:20:41;;;;;;;30.45;18.87;;;2.30;99.90;;;;;;478659;248;27522;-73
2023/02/16 04:22:43;;;;;;;28.45;16.00;;;2.20;99.90;;;;;;478674;248;28142;-74
2023/02/16 04:24:44;;;;;;;28.05;17.25;;;2.20;99.90;;;;;;478668;248;27986;-74
2023/02/16 04:26:45;;;;;;;29.12;18.10;;;2.20;99.90;;;;;;478672;248;27541;-73
2023/02/16 04:28:46;;;;;;;28.17;16.90;;;2.20;99.90;;;;;;478672;248;27414;-75
2023/02/16 04:30:48;;;;;;;24.65;15.77;;;2.10;99.90;;;;;;478645;248;27458;-74
2023/02/16 04:32:49;;;;;;;22.33;15.30;;;2.10;99.90;;;;;;478659;248;27430;-75
2023/02/16 04:34:50;;;;;;;22.15;15.05;;;2.10;99.90;;;;;;478706;248;27410;-74
2023/02/16 04:36:51;;;;;;;26.48;15.77;;;2.00;99.90;;;;;;478700;248;27545;-73
2023/02/16 04:38:53;;;;;;;27.85;17.90;;;2.00;99.90;;;;;;478688;248;27921;-74
2023/02/16 04:40:54;;;;;;;25.15;15.35;;;2.00;99.90;;;;;;478680;248;27949;-73
2023/02/16 04:42:55;;;;;;;35.38;21.50;;;2.00;99.90;;;;;;478668;248;27409;-74
2023/02/16 04:44:56;;;;;;;32.20;20.20;;;2.10;99.90;;;;;;478711;248;27426;-73
2023/02/16 04:46:58;;;;;;;24.48;16.00;;;2.20;99.90;;;;;;478661;248;27475;-75
2023/02/16 04:48:59;;;;;;;27.40;17.58;;;2.20;99.90;;;;;;478640;248;27419;-73
2023/02/16 04:51:00;;;;;;;35.03;19.95;;;2.20;99.90;;;;;;478616;248;27526;-73
2023/02/16 04:53:01;;;;;;;26.20;17.95;;;2.20;99.90;;;;;;478561;248;28386;-73
2023/02/16 04:55:04;;;;;;;31.25;19.87;;;2.30;99.90;;;;;;478649;248;27870;-73
2023/02/16 04:57:04;;;;;;;24.55;16.62;;;2.30;99.90;;;;;;478620;248;27486;-74
2023/02/16 04:59:05;;;;;;;28.17;17.25;;;2.30;99.90;;;;;;478621;248;27411;-73
2023/02/16 05:01:07;;;;;;;31.62;19.27;;;2.20;99.90;;;;;;478656;248;27556;-74
2023/02/16 05:03:08;;;;;;;35.90;21.58;;;2.20;99.90;;;;;;478659;248;28101;-73
2023/02/16 05:05:09;;;;;;;27.30;17.62;;;2.20;99.90;;;;;;478652;248;28003;-74
2023/02/16 05:07:10;;;;;;;34.47;20.85;;;2.20;99.90;;;;;;478658;248;27525;-75
2023/02/16 05:09:12;;;;;;;33.60;21.80;;;2.20;99.90;;;;;;478616;248;27434;-75
2023/02/16 05:15:52;;;;;;;29.33;18.25;;;2.30;99.90;;;;;;478628;248;27556;-75
2023/02/16 05:17:53;;;;;;;37.05;20.45;;;2.30;99.90;;;;;;478661;248;28315;-74
2023/02/16 05:19:54;;;;;;;36.28;19.87;;;2.20;99.90;;;;;;478682;248;29178;-76
2023/02/16 05:21:56;;;;;;;38.00;21.50;;;2.10;99.90;;;;;;478656;248;27503;-73
2023/02/16 05:23:57;;;;;;;28.48;18.77;;;2.00;99.90;;;;;;478627;248;27481;-75
2023/02/16 05:25:58;;;;;;;27.05;17.20;;;2.00;99.90;;;;;;478652;248;27418;-74
2023/02/16 05:27:59;;;;;;;30.80;19.75;;;1.90;99.90;;;;;;478694;248;27423;-75
2023/02/16 05:30:01;;;;;;;29.55;19.60;;;1.90;99.90;;;;;;478685;248;27475;-75
2023/02/16 05:32:02;;;;;;;28.95;18.20;;;1.90;99.90;;;;;;478654;248;27928;-74
2023/02/16 05:34:03;;;;;;;28.10;18.58;;;1.80;99.90;;;;;;478638;248;27931;-73
2023/02/16 05:36:04;;;;;;;37.80;22.42;;;1.80;99.90;;;;;;478597;248;29130;-74
2023/02/16 05:38:06;;;;;;;34.80;22.23;;;1.80;99.90;;;;;;478681;248;27554;-75
2023/02/16 05:40:07;;;;;;;36.85;21.52;;;1.90;99.90;;;;;;478689;248;27518;-75
2023/02/16 05:42:08;;;;;;;38.08;22.60;;;2.00;99.90;;;;;;478642;248;27481;-73
2023/02/16 05:44:09;;;;;;;37.80;22.67;;;2.10;99.90;;;;;;478643;248;27586;-75
2023/02/16 05:46:11;;;;;;;30.00;18.95;;;2.10;99.90;;;;;;478628;248;27486;-74
2023/02/16 05:48:12;;;;;;;30.27;20.02;;;2.10;99.90;;;;;;478650;248;27941;-75
2023/02/16 05:50:13;;;;;;;36.38;20.70;;;2.10;99.90;;;;;;478663;248;27941;-76
2023/02/16 05:52:15;;;;;;;30.77;18.62;;;2.10;99.90;;;;;;478678;248;27450;-74
2023/02/16 05:54:18;;;;;;;31.40;19.83;;;2.20;99.90;;;;;;478647;248;27455;-75
2023/02/16 05:56:20;;;;;;;30.20;18.75;;;2.20;99.90;;;;;;478657;245;27915;-76
2023/02/16 05:58:21;;;;;;;29.80;18.83;;;2.20;99.90;;;;;;478642;248;27886;-75
2023/02/16 06:00:22;;;;;;;24.80;16.73;;;2.20;99.90;;;;;;478633;248;27450;-74
2023/02/16 06:02:24;;;;;;;30.85;19.37;;;2.30;99.90;;;;;;478712;248;27463;-76
2023/02/16 06:04:25;;;;;;;38.15;21.37;;;2.40;99.90;;;;;;478669;248;27537;-75
2023/02/16 06:06:26;;;;;;;25.83;17.15;;;2.40;99.90;;;;;;478644;248;27549;-77
2023/02/16 06:08:27;;;;;;;31.92;20.40;;;2.40;99.90;;;;;;478650;248;27419;-75
2023/02/16 06:10:29;;;;;;;37.47;22.35;;;2.40;99.90;;;;;;478649;248;27978;-76
2023/02/16 06:12:31;;;;;;;30.75;19.08;;;2.50;99.90;;;;;;478677;248;27984;-74
2023/02/16 06:14:31;;;;;;;27.65;17.40;;;2.40;99.90;;;;;;478626;248;27870;-75
2023/02/16 06:16:32;;;;;;;31.75;18.25;;;2.40;99.90;;;;;;478672;248;27442;-75
2023/02/16 06:18:34;;;;;;;27.70;17.87;;;2.30;99.90;;;;;;478659;248;27494;-75
2023/02/16 06:20:35;;;;;;;32.00;20.15;;;2.30;99.90;;;;;;478641;248;27466;-75
2023/02/16 06:22:36;;;;;;;38.60;21.60;;;2.20;99.90;;;;;;478724;248;27940;-74
2023/02/16 06:24:37;;;;;;;31.25;19.33;;;2.10;99.90;;;;;;478704;248;27418;-74
2023/02/16 06:26:39;;;;;;;28.87;18.75;;;2.10;99.90;;;;;;478707;248;28019;-75
2023/02/16 06:28:40;;;;;;;35.08;20.05;;;2.30;99.90;;;;;;478682;248;27870;-75
2023/02/16 06:30:41;;;;;;;29.37;18.17;;;2.20;99.90;;;;;;478670;248;27482;-74
2023/02/16 06:32:42;;;;;;;29.37;17.98;;;2.20;99.90;;;;;;478678;248;27474;-75
2023/02/16 06:34:44;;;;;;;28.10;18.40;;;2.10;99.90;;;;;;478659;248;27478;-74
2023/02/16 06:36:45;;;;;;;31.60;19.60;;;2.20;99.90;;;;;;478622;248;27592;-75
2023/02/16 06:38:46;;;;;;;33.47;21.73;;;2.10;99.90;;;;;;478642;248;27431;-73
2023/02/16 06:40:47;;;;;;;36.85;21.37;;;2.10;99.90;;;;;;478573;248;27553;-75
2023/02/16 06:42:49;;;;;;;29.08;18.48;;;2.10;99.90;;;;;;478663;248;27999;-75
2023/02/16 06:44:50;;;;;;;29.85;18.92;;;2.00;99.90;;;;;;478673;248;27976;-75
2023/02/16 06:46:51;;;;;;;37.67;21.92;;;2.00;99.90;;;;;;478644;248;27616;-75
2023/02/16 06:48:52;;;;;;;33.92;20.58;;;2.00;99.90;;;;;;478659;248;27422;-75
2023/02/16 06:50:54;;;;;;;28.80;17.92;;;2.00;99.90;;;;;;478623;248;27454;-75
2023/02/16 06:52:55;;;;;;;37.33;22.85;;;2.00;99.90;;;;;;478630;248;27547;-75
2023/02/16 06:54:56;;;;;;;29.65;19.33;;;2.00;99.90;;;;;;478683;248;27534;-75
2023/02/16 06:56:57;;;;;;;36.78;20.92;;;1.90;99.90;;;;;;478668;248;27478;-75
2023/02/16 06:58:59;;;;;;;35.90;21.60;;;1.90;99.90;;;;;;478654;248;27995;-74
2023/02/16 07:01:00;;;;;;;34.60;21.05;;;1.90;99.90;;;;;;478614;248;27956;-74
2023/02/16 07:03:01;;;;;;;31.23;20.08;;;1.90;99.90;;;;;;478691;248;27470;-75
2023/02/16 07:05:02;;;;;;;41.22;22.45;;;2.00;99.90;;;;;;478656;248;27553;-75
2023/02/16 07:07:04;;;;;;;31.35;19.83;;;2.00;99.90;;;;;;478660;248;27479;-75
2023/02/16 07:09:05;;;;;;;38.30;22.42;;;2.00;99.90;;;;;;478655;248;27525;-75
2023/02/16 07:11:06;;;;;;;61.85;39.17;;;2.10;99.90;;;;;;478627;248;27470;-75
2023/02/16 07:13:07;;;;;;;38.30;23.70;;;2.10;99.90;;;;;;478681;248;27977;-75
2023/02/16 07:15:09;;;;;;;34.03;20.92;;;2.10;99.90;;;;;;478662;248;27869;-74
2023/02/16 07:17:10;;;;;;;31.50;20.35;;;2.20;99.90;;;;;;478650;248;27534;-75
2023/02/16 07:19:12;;;;;;;29.67;18.75;;;2.20;99.90;;;;;;478594;248;27411;-75
2023/02/16 07:21:13;;;;;;;36.10;20.95;;;2.30;99.90;;;;;;478610;248;28109;-75
2023/02/16 07:23:14;;;;;;;32.80;19.70;;;2.30;99.90;;;;;;478651;248;27445;-74
2023/02/16 07:25:16;;;;;;;32.78;19.42;;;2.40;99.90;;;;;;478688;248;27461;-73
2023/02/16 07:27:17;;;;;;;33.40;20.42;;;2.40;99.90;;;;;;478652;248;27415;-75
2023/02/16 07:29:18;;;;;;;27.70;18.02;;;2.40;99.90;;;;;;478641;248;27450;-74
2023/02/16 07:31:20;;;;;;;32.92;19.58;;;2.60;99.90;;;;;;478669;248;27426;-74
2023/02/16 07:33:21;;;;;;;28.42;18.08;;;2.70;99.90;;;;;;478653;248;27581;-75
2023/02/16 07:35:22;;;;;;;34.00;19.98;;;2.70;99.90;;;;;;478694;248;27917;-75
2023/02/16 07:37:23;;;;;;;29.42;18.50;;;2.60;99.90;;;;;;478670;248;27887;-74
2023/02/16 07:39:25;;;;;;;28.05;17.95;;;2.70;99.90;;;;;;478656;248;27454;-75
2023/02/16 07:41:26;;;;;;;27.20;16.77;;;2.60;99.90;;;;;;478689;248;27466;-74
2023/02/16 07:43:27;;;;;;;26.05;16.15;;;2.60;99.90;;;;;;478675;248;27483;-74
2023/02/16 07:45:28;;;;;;;22.17;15.77;;;2.60;99.90;;;;;;478674;248;27474;-74
2023/02/16 07:47:30;;;;;;;25.23;16.35;;;2.60;99.90;;;;;;478648;248;27410;-74
2023/02/16 07:49:31;;;;;;;26.37;16.30;;;2.60;99.90;;;;;;478615;248;27462;-74
2023/02/16 07:51:32;;;;;;;24.12;14.55;;;2.70;99.90;;;;;;478685;248;28106;-75
2023/02/16 07:53:33;;;;;;;28.85;17.30;;;2.80;99.90;;;;;;478665;248;27874;-75
2023/02/16 07:55:35;;;;;;;27.45;16.52;;;2.90;99.90;;;;;;478660;248;27473;-74
2023/02/16 07:57:36;;;;;;;24.17;15.52;;;2.90;99.90;;;;;;478606;248;27406;-74
2023/02/16 07:59:37;;;;;;;26.30;16.80;;;3.00;99.90;;;;;;478601;248;27469;-74
2023/02/16 08:01:40;;;;;;;22.58;15.77;;;3.00;99.90;;;;;;478656;248;27809;-76
2023/02/16 08:03:40;;;;;;;26.15;17.50;;;3.10;99.90;;;;;;478589;248;27516;-75
2023/02/16 08:05:41;;;;;;;27.60;16.87;;;3.20;99.90;;;;;;478670;248;27959;-74
2023/02/16 08:07:42;;;;;;;31.10;19.05;;;3.30;99.90;;;;;;478464;248;27946;-75
2023/02/16 08:09:43;;;;;;;24.27;16.15;;;3.20;99.90;;;;;;478652;248;28022;-74
2023/02/16 08:11:45;;;;;;;28.15;17.30;;;3.20;99.90;;;;;;478698;246;27474;-75
2023/02/16 08:13:46;;;;;;;22.98;14.77;;;3.30;99.90;;;;;;478688;248;27482;-74
2023/02/16 08:15:47;;;;;;;26.90;16.67;;;3.40;99.90;;;;;;478673;248;27476;-76
2023/02/16 08:17:48;;;;;;;30.30;17.05;;;3.50;99.90;;;;;;478645;248;27481;-74
2023/02/16 08:19:50;;;;;;;25.92;15.95;;;3.60;99.90;;;;;;478604;248;27446;-75
2023/02/16 08:21:51;;;;;;;22.87;14.60;;;3.80;99.90;;;;;;478665;248;28044;-77
2023/02/16 08:23:52;;;;;;;25.85;16.75;;;4.00;99.90;;;;;;478655;248;27875;-74
2023/02/16 08:25:57;;;;;;;26.55;15.70;;;4.00;99.90;;;;;;478624;248;27446;-74
2023/02/16 08:27:55;;;;;;;20.37;14.98;;;4.10;99.90;;;;;;478384;248;27453;-74
2023/02/16 08:29:56;;;;;;;21.62;14.75;;;4.10;99.90;;;;;;478602;248;27565;-75
2023/02/16 08:31:57;;;;;;;21.33;13.73;;;4.10;99.90;;;;;;478639;248;27929;-75
2023/02/16 08:33:59;;;;;;;19.73;13.73;;;4.20;99.90;;;;;;478646;248;27410;-75
2023/02/16 08:36:00;;;;;;;24.00;15.98;;;4.30;99.90;;;;;;478616;248;27543;-75
2023/02/16 08:38:01;;;;;;;22.62;14.10;;;4.30;99.90;;;;;;478627;248;27444;-74
2023/02/16 08:40:03;;;;;;;20.05;13.20;;;4.50;99.90;;;;;;478640;248;27553;-74
2023/02/16 08:42:04;;;;;;;21.80;14.55;;;4.40;99.90;;;;;;478662;248;28098;-76
2023/02/16 08:44:05;;;;;;;23.83;14.10;;;4.40;99.90;;;;;;478652;248;27521;-75
2023/02/16 08:46:09;;;;;;;17.35;12.82;;;4.50;99.90;;;;;;478614;248;27486;-74
2023/02/16 08:48:08;;;;;;;19.48;13.10;;;4.50;99.90;;;;;;478223;248;27499;-74
2023/02/16 08:50:10;;;;;;;22.20;13.10;;;4.60;99.90;;;;;;478622;248;27554;-74
2023/02/16 08:52:11;;;;;;;23.83;14.77;;;4.60;99.90;;;;;;478629;248;27542;-74
2023/02/16 08:54:11;;;;;;;19.83;13.73;;;4.70;99.90;;;;;;478635;248;27959;-74
2023/02/16 08:56:13;;;;;;;19.60;13.20;;;4.80;99.90;;;;;;478694;248;27443;-75
2023/02/16 08:58:14;;;;;;;22.83;14.07;;;4.90;99.90;;;;;;478630;248;27447;-75
2023/02/16 09:00:33;;;;;;;22.27;13.85;;;4.90;99.90;;;;;;478650;248;27470;-77
2023/02/16 09:02:35;;;;;;;20.90;13.07;;;5.00;99.90;;;;;;478611;242;27452;-74
2023/02/16 09:04:36;;;;;;;20.10;13.13;;;5.10;99.90;;;;;;478609;248;27538;-74
2023/02/16 09:06:37;;;;;;;18.27;12.13;;;5.10;99.90;;;;;;478535;248;28004;-74
2023/02/16 09:08:38;;;;;;;19.08;11.90;;;5.30;99.90;;;;;;478641;248;27578;-74
2023/02/16 09:10:40;;;;;;;28.35;13.65;;;5.30;99.90;;;;;;478585;248;27422;-77
2023/02/16 09:12:42;;;;;;;18.80;13.82;;;5.40;99.90;;;;;;478557;248;27512;-73
2023/02/16 09:14:42;;;;;;;23.15;13.90;;;5.50;99.90;;;;;;478601;248;27488;-73
2023/02/16 09:16:47;;;;;;;20.77;12.77;;;5.50;99.90;;;;;;478659;248;27868;-74
2023/02/16 09:18:48;;;;;;;18.42;13.02;;;5.60;99.90;;;;;;478685;248;27545;-74
2023/02/16 09:20:49;;;;;;;22.60;12.73;;;5.70;99.90;;;;;;478673;248;27510;-75
2023/02/16 09:22:51;;;;;;;14.87;10.48;;;5.70;99.90;;;;;;478675;248;27871;-74
2023/02/16 09:24:52;;;;;;;14.63;10.02;;;5.80;99.90;;;;;;478691;248;27542;-73
2023/02/16 09:26:53;;;;;;;19.87;12.93;;;5.80;99.90;;;;;;478695;248;27486;-75
2023/02/16 09:28:54;;;;;;;21.10;11.88;;;5.90;99.90;;;;;;476176;248;36440;-75
2023/02/16 09:30:55;;;;;;;19.83;11.80;;;6.00;99.90;;;;;;478650;248;27501;-75
2023/02/16 09:32:57;;;;;;;17.27;11.73;;;6.10;99.90;;;;;;478654;248;27878;-77
2023/02/16 09:34:58;;;;;;;17.20;11.70;;;6.30;99.90;;;;;;478678;248;27434;-77
2023/02/16 09:36:59;;;;;;;16.20;11.00;;;6.20;99.90;;;;;;478702;248;27474;-74
2023/02/16 09:39:01;;;;;;;16.50;10.38;;;6.30;99.90;;;;;;478707;248;27435;-73
2023/02/16 09:41:02;;;;;;;22.92;11.55;;;6.40;99.90;;;;;;478665;248;28117;-74
2023/02/16 09:43:03;;;;;;;18.62;11.65;;;6.40;99.90;;;;;;478703;248;27557;-77
2023/02/16 09:45:04;;;;;;;16.77;10.50;;;6.60;99.90;;;;;;478732;248;27537;-78
2023/02/16 09:47:05;;;;;;;21.00;11.93;;;6.60;99.90;;;;;;478741;248;27586;-77
2023/02/16 09:49:07;;;;;;;20.97;10.70;;;6.70;99.90;;;;;;478705;248;28037;-72
2023/02/16 09:51:09;;;;;;;15.90;9.97;;;6.70;99.90;;;;;;478713;248;28034;-74
2023/02/16 09:53:10;;;;;;;16.62;11.02;;;6.80;99.90;;;;;;478680;248;30070;-75
2023/02/16 09:55:11;;;;;;;17.10;10.70;;;6.90;99.90;;;;;;478752;248;27509;-73
2023/02/16 09:57:12;;;;;;;14.90;9.48;;;7.00;99.90;;;;;;478748;248;28841;-74
2023/02/16 09:59:13;;;;;;;15.20;10.07;;;7.00;99.90;;;;;;478684;248;27427;-78
2023/02/16 10:01:16;;;;;;;18.27;9.90;;;7.10;99.90;;;;;;478674;248;27945;-77
2023/02/16 10:03:17;;;;;;;15.87;10.40;;;7.20;99.90;;;;;;478548;248;27904;-78
2023/02/16 10:05:17;;;;;;;20.50;10.43;;;7.30;99.90;;;;;;478633;248;27997;-77
2023/02/16 10:07:19;;;;;;;22.70;10.20;;;7.50;99.90;;;;;;478681;248;28686;-78
2023/02/16 10:09:19;;;;;;;13.77;9.97;;;7.50;99.90;;;;;;478634;248;28354;-77
2023/02/16 10:13:40;;;;;;;12.03;9.17;;;7.60;99.90;;;;;;478656;246;28092;-77
2023/02/16 10:15:41;;;;;;;15.73;9.93;;;7.60;99.90;;;;;;478642;248;27998;-76
2023/02/16 10:17:43;;;;;;;12.93;8.50;;;7.70;99.90;;;;;;478646;248;27998;-78
2023/02/16 10:19:44;;;;;;;15.17;9.27;;;7.80;99.90;;;;;;478698;248;27836;-78
2023/02/16 10:21:45;;;;;;;13.07;9.03;;;7.90;99.90;;;;;;478729;248;27908;-77
2023/02/16 10:23:46;;;;;;;14.80;10.00;;;8.00;99.90;;;;;;478690;248;28501;-77
2023/02/16 10:25:48;;;;;;;13.83;8.80;;;8.10;99.90;;;;;;478635;248;28425;-78
2023/02/16 10:27:49;;;;;;;15.03;9.70;;;8.10;99.90;;;;;;478617;248;28303;-77
2023/02/16 10:29:50;;;;;;;13.80;9.60;;;8.20;99.90;;;;;;478704;248;27825;-78
2023/02/16 10:31:51;;;;;;;17.40;9.53;;;8.30;99.90;;;;;;478686;248;27911;-77
2023/02/16 10:33:53;;;;;;;12.23;7.67;;;8.30;99.90;;;;;;478642;248;27913;-78
2023/02/16 10:35:54;;;;;;;16.67;10.03;;;8.30;99.90;;;;;;478647;248;27515;-78
2023/02/16 10:37:55;;;;;;;16.53;9.73;;;8.30;99.90;;;;;;478639;248;27605;-78
2023/02/16 10:39:56;;;;;;;15.30;10.27;;;8.30;99.90;;;;;;478677;248;28077;-79
2023/02/16 10:41:58;;;;;;;11.53;8.03;;;8.40;99.90;;;;;;478692;248;28024;-78
2023/02/16 10:43:59;;;;;;;17.80;9.17;;;8.40;99.90;;;;;;478662;248;27966;-78
2023/02/16 10:46:00;;;;;;;16.17;9.87;;;8.50;99.90;;;;;;478650;248;28229;-78
2023/02/16 10:48:01;;;;;;;15.80;9.47;;;8.70;99.90;;;;;;478608;248;28469;-78
2023/02/16 10:50:03;;;;;;;12.93;9.27;;;8.80;99.90;;;;;;478665;248;28899;-79
2023/02/16 10:52:04;;;;;;;12.83;9.60;;;8.90;99.90;;;;;;478715;248;27887;-78
2023/02/16 10:54:05;;;;;;;16.67;9.77;;;9.00;99.90;;;;;;478687;248;27917;-79
2023/02/16 10:56:06;;;;;;;13.83;9.90;;;9.20;99.90;;;;;;478673;248;27965;-78
2023/02/16 10:58:08;;;;;;;15.40;9.07;;;9.30;99.90;;;;;;478660;248;27960;-78
2023/02/16 11:00:09;;;;;;;12.17;8.87;;;9.50;99.90;;;;;;478694;248;27859;-77
2023/02/16 11:02:10;;;;;;;12.83;8.30;;;9.60;99.90;;;;;;478682;248;27790;-78
2023/02/16 11:04:11;;;;;;;13.47;8.27;;;9.70;99.90;;;;;;478666;248;27796;-80
2023/02/16 11:06:13;;;;;;;12.90;8.67;;;9.70;99.90;;;;;;478655;248;27897;-78
2023/02/16 11:08:14;;;;;;;11.30;7.23;;;9.70;99.90;;;;;;478664;248;27824;-79
2023/02/16 11:10:15;;;;;;;13.90;7.60;;;9.70;99.90;;;;;;478694;248;28331;-78
2023/02/16 11:12:16;;;;;;;9.40;7.23;;;9.70;99.90;;;;;;478664;248;28512;-78